CYXU

London Airport

London, Ontario, Canada
METAR CYXU 141300Z 31004KT 15SM SCT220 22/17 A2997 RMK CI3 SLP147 DENSITY ALT 1900FT
Observed Flight Rules
Aug-14 @ 13:00 UTC (43 minutes ago) Visual Flight Rules
Wind Visibility Clouds
310° at 4 knots 15 miles
  • Scattered at 22,000' AGL
Temperatures Readings
Current 22°C / 72°F
Dewpoint 17°C / 63°F
Humidity 73%
Altimeter 29.97" Hg
Pressure 1014.7 hPa
Elevation 278
METAR CYXU 141300Z 31004KT 15SM SCT220 22/17 A2997 RMK CI3 SLP147 DENSITY ALT 1900FT
Observed Flight Rules
Aug-14 @ 13:00 UTC
(43 minutes ago)
VFR
Wind Visibility
310° at 4 knots 15 miles
Clouds
  • Scattered at 22,000' AGL
Temperature Dewpoint
22°C / 72°F 17°C / 63°F
Humidity Altimeter Pressure
73% 29.97" Hg 1014.7 hPa